sensor_id;sensor_type;location;lat;lon;timestamp;P1;durP1;ratioP1;P2;durP2;ratioP2
67941;SDS011;54731;42.600;23.476;2023-08-01T00:01:46;2.50;;;1.58;;
67941;SDS011;54731;42.600;23.476;2023-08-01T00:04:11;5.70;;;2.40;;
67941;SDS011;54731;42.600;23.476;2023-08-01T00:06:36;2.60;;;1.53;;
67941;SDS011;54731;42.600;23.476;2023-08-01T00:09:02;5.33;;;1.57;;
67941;SDS011;54731;42.600;23.476;2023-08-01T00:11:27;2.03;;;1.57;;
67941;SDS011;54731;42.600;23.476;2023-08-01T00:13:52;2.27;;;1.53;;
67941;SDS011;54731;42.600;23.476;2023-08-01T00:16:18;4.30;;;1.90;;
67941;SDS011;54731;42.600;23.476;2023-08-01T00:18:43;4.60;;;1.60;;
67941;SDS011;54731;42.600;23.476;2023-08-01T00:21:08;2.70;;;1.50;;
67941;SDS011;54731;42.600;23.476;2023-08-01T00:23:33;3.13;;;1.87;;
67941;SDS011;54731;42.600;23.476;2023-08-01T00:26:00;4.90;;;2.30;;
67941;SDS011;54731;42.600;23.476;2023-08-01T00:28:25;4.20;;;1.77;;
67941;SDS011;54731;42.600;23.476;2023-08-01T00:30:50;2.40;;;1.63;;
67941;SDS011;54731;42.600;23.476;2023-08-01T00:33:16;3.53;;;2.13;;
67941;SDS011;54731;42.600;23.476;2023-08-01T00:35:41;2.90;;;1.60;;
67941;SDS011;54731;42.600;23.476;2023-08-01T00:38:06;3.00;;;1.80;;
67941;SDS011;54731;42.600;23.476;2023-08-01T00:40:32;5.07;;;2.10;;
67941;SDS011;54731;42.600;23.476;2023-08-01T00:42:58;4.30;;;2.00;;
67941;SDS011;54731;42.600;23.476;2023-08-01T00:45:24;2.38;;;1.80;;
67941;SDS011;54731;42.600;23.476;2023-08-01T00:47:51;3.07;;;1.80;;
67941;SDS011;54731;42.600;23.476;2023-08-01T00:50:18;2.50;;;1.92;;
67941;SDS011;54731;42.600;23.476;2023-08-01T00:52:43;3.63;;;1.90;;
67941;SDS011;54731;42.600;23.476;2023-08-01T00:55:09;3.20;;;1.90;;
67941;SDS011;54731;42.600;23.476;2023-08-01T00:57:34;3.10;;;2.00;;
67941;SDS011;54731;42.600;23.476;2023-08-01T00:59:59;3.10;;;1.90;;
67941;SDS011;54731;42.600;23.476;2023-08-01T01:02:24;8.40;;;2.03;;
67941;SDS011;54731;42.600;23.476;2023-08-01T01:04:50;2.92;;;1.90;;
67941;SDS011;54731;42.600;23.476;2023-08-01T01:07:15;3.92;;;1.88;;
67941;SDS011;54731;42.600;23.476;2023-08-01T01:09:42;2.23;;;1.80;;
67941;SDS011;54731;42.600;23.476;2023-08-01T01:12:07;4.47;;;2.10;;
67941;SDS011;54731;42.600;23.476;2023-08-01T01:14:32;2.88;;;1.65;;
67941;SDS011;54731;42.600;23.476;2023-08-01T01:16:58;3.10;;;1.90;;
67941;SDS011;54731;42.600;23.476;2023-08-01T01:19:23;3.33;;;1.80;;
67941;SDS011;54731;42.600;23.476;2023-08-01T01:21:48;4.60;;;2.13;;
67941;SDS011;54731;42.600;23.476;2023-08-01T01:24:15;5.25;;;1.80;;
67941;SDS011;54731;42.600;23.476;2023-08-01T01:26:41;2.43;;;1.70;;
67941;SDS011;54731;42.600;23.476;2023-08-01T01:29:07;2.58;;;1.90;;
67941;SDS011;54731;42.600;23.476;2023-08-01T01:31:34;4.22;;;1.50;;
67941;SDS011;54731;42.600;23.476;2023-08-01T01:33:59;4.00;;;1.63;;
67941;SDS011;54731;42.600;23.476;2023-08-01T01:36:25;2.83;;;2.00;;
67941;SDS011;54731;42.600;23.476;2023-08-01T01:38:51;2.40;;;1.60;;
67941;SDS011;54731;42.600;23.476;2023-08-01T01:41:16;3.10;;;1.83;;
67941;SDS011;54731;42.600;23.476;2023-08-01T01:43:41;4.50;;;2.07;;
67941;SDS011;54731;42.600;23.476;2023-08-01T01:46:06;3.70;;;1.60;;
67941;SDS011;54731;42.600;23.476;2023-08-01T01:48:32;2.35;;;1.75;;
67941;SDS011;54731;42.600;23.476;2023-08-01T01:50:57;2.87;;;1.80;;
67941;SDS011;54731;42.600;23.476;2023-08-01T01:53:22;3.40;;;1.93;;
67941;SDS011;54731;42.600;23.476;2023-08-01T01:55:48;3.27;;;1.80;;
67941;SDS011;54731;42.600;23.476;2023-08-01T01:58:13;1.80;;;1.43;;
67941;SDS011;54731;42.600;23.476;2023-08-01T02:00:38;2.33;;;1.73;;
67941;SDS011;54731;42.600;23.476;2023-08-01T02:03:04;3.73;;;2.00;;
67941;SDS011;54731;42.600;23.476;2023-08-01T02:05:29;2.10;;;1.60;;
67941;SDS011;54731;42.600;23.476;2023-08-01T02:07:55;3.97;;;1.60;;
67941;SDS011;54731;42.600;23.476;2023-08-01T02:10:20;3.63;;;1.63;;
67941;SDS011;54731;42.600;23.476;2023-08-01T02:12:45;3.17;;;1.63;;
67941;SDS011;54731;42.600;23.476;2023-08-01T02:15:11;4.10;;;1.83;;
67941;SDS011;54731;42.600;23.476;2023-08-01T02:17:36;3.70;;;2.42;;
67941;SDS011;54731;42.600;23.476;2023-08-01T02:20:01;3.33;;;1.73;;
67941;SDS011;54731;42.600;23.476;2023-08-01T02:22:27;3.93;;;1.80;;
67941;SDS011;54731;42.600;23.476;2023-08-01T02:24:52;3.33;;;1.60;;
67941;SDS011;54731;42.600;23.476;2023-08-01T02:27:17;5.83;;;1.80;;
67941;SDS011;54731;42.600;23.476;2023-08-01T02:29:43;3.30;;;2.00;;
67941;SDS011;54731;42.600;23.476;2023-08-01T02:32:08;3.50;;;1.63;;
67941;SDS011;54731;42.600;23.476;2023-08-01T02:34:33;3.23;;;1.90;;
67941;SDS011;54731;42.600;23.476;2023-08-01T02:36:58;3.20;;;1.87;;
67941;SDS011;54731;42.600;23.476;2023-08-01T02:39:24;3.63;;;1.67;;
67941;SDS011;54731;42.600;23.476;2023-08-01T02:41:49;7.73;;;1.80;;
67941;SDS011;54731;42.600;23.476;2023-08-01T02:44:15;2.93;;;1.70;;
67941;SDS011;54731;42.600;23.476;2023-08-01T02:46:40;3.87;;;1.70;;
67941;SDS011;54731;42.600;23.476;2023-08-01T02:49:05;4.70;;;2.00;;
67941;SDS011;54731;42.600;23.476;2023-08-01T02:51:31;2.70;;;1.65;;
67941;SDS011;54731;42.600;23.476;2023-08-01T02:53:56;4.43;;;1.83;;
67941;SDS011;54731;42.600;23.476;2023-08-01T02:56:21;3.57;;;1.70;;
67941;SDS011;54731;42.600;23.476;2023-08-01T02:58:46;3.63;;;1.87;;
67941;SDS011;54731;42.600;23.476;2023-08-01T03:01:12;2.33;;;1.53;;
67941;SDS011;54731;42.600;23.476;2023-08-01T03:03:37;4.23;;;1.90;;
67941;SDS011;54731;42.600;23.476;2023-08-01T03:06:02;5.30;;;1.70;;
67941;SDS011;54731;42.600;23.476;2023-08-01T03:08:28;4.90;;;1.80;;
67941;SDS011;54731;42.600;23.476;2023-08-01T03:10:53;3.70;;;2.00;;
67941;SDS011;54731;42.600;23.476;2023-08-01T03:13:19;6.45;;;2.13;;
67941;SDS011;54731;42.600;23.476;2023-08-01T03:15:44;3.83;;;2.00;;
67941;SDS011;54731;42.600;23.476;2023-08-01T03:18:10;3.27;;;1.90;;
67941;SDS011;54731;42.600;23.476;2023-08-01T03:20:35;2.60;;;1.77;;
67941;SDS011;54731;42.600;23.476;2023-08-01T03:23:00;2.85;;;1.90;;
67941;SDS011;54731;42.600;23.476;2023-08-01T03:25:26;4.67;;;2.10;;
67941;SDS011;54731;42.600;23.476;2023-08-01T03:27:51;2.33;;;1.60;;
67941;SDS011;54731;42.600;23.476;2023-08-01T03:30:16;3.10;;;1.90;;
67941;SDS011;54731;42.600;23.476;2023-08-01T03:32:41;11.00;;;2.93;;
67941;SDS011;54731;42.600;23.476;2023-08-01T03:35:07;4.70;;;2.73;;
67941;SDS011;54731;42.600;23.476;2023-08-01T03:37:32;3.67;;;2.53;;
67941;SDS011;54731;42.600;23.476;2023-08-01T03:39:58;4.38;;;2.60;;
67941;SDS011;54731;42.600;23.476;2023-08-01T03:42:23;5.05;;;2.60;;
67941;SDS011;54731;42.600;23.476;2023-08-01T03:44:48;3.97;;;2.20;;
67941;SDS011;54731;42.600;23.476;2023-08-01T03:47:13;3.53;;;2.70;;
67941;SDS011;54731;42.600;23.476;2023-08-01T03:49:39;9.90;;;3.13;;
67941;SDS011;54731;42.600;23.476;2023-08-01T03:52:05;3.20;;;2.30;;
67941;SDS011;54731;42.600;23.476;2023-08-01T03:54:30;3.97;;;2.50;;
67941;SDS011;54731;42.600;23.476;2023-08-01T03:56:56;4.07;;;2.43;;
67941;SDS011;54731;42.600;23.476;2023-08-01T03:59:21;4.33;;;2.47;;
67941;SDS011;54731;42.600;23.476;2023-08-01T04:01:47;4.00;;;2.40;;
67941;SDS011;54731;42.600;23.476;2023-08-01T04:04:12;4.50;;;2.20;;
67941;SDS011;54731;42.600;23.476;2023-08-01T04:06:37;5.43;;;2.63;;
67941;SDS011;54731;42.600;23.476;2023-08-01T04:09:02;5.32;;;2.55;;
67941;SDS011;54731;42.600;23.476;2023-08-01T04:11:28;4.03;;;1.87;;
67941;SDS011;54731;42.600;23.476;2023-08-01T04:13:53;4.87;;;2.40;;
67941;SDS011;54731;42.600;23.476;2023-08-01T04:16:19;7.23;;;2.53;;
67941;SDS011;54731;42.600;23.476;2023-08-01T04:18:44;4.35;;;2.15;;
67941;SDS011;54731;42.600;23.476;2023-08-01T04:21:11;6.00;;;2.10;;
67941;SDS011;54731;42.600;23.476;2023-08-01T04:23:38;3.22;;;2.05;;
67941;SDS011;54731;42.600;23.476;2023-08-01T04:26:03;3.30;;;1.93;;
67941;SDS011;54731;42.600;23.476;2023-08-01T04:28:28;5.83;;;2.20;;
67941;SDS011;54731;42.600;23.476;2023-08-01T04:30:53;4.83;;;2.40;;
67941;SDS011;54731;42.600;23.476;2023-08-01T04:33:19;4.93;;;2.53;;
67941;SDS011;54731;42.600;23.476;2023-08-01T04:35:44;6.40;;;2.93;;
67941;SDS011;54731;42.600;23.476;2023-08-01T04:38:09;4.43;;;2.90;;
67941;SDS011;54731;42.600;23.476;2023-08-01T04:40:35;9.83;;;3.30;;
67941;SDS011;54731;42.600;23.476;2023-08-01T04:43:03;6.87;;;3.83;;
67941;SDS011;54731;42.600;23.476;2023-08-01T04:45:28;10.05;;;3.20;;
67941;SDS011;54731;42.600;23.476;2023-08-01T04:47:53;6.20;;;3.33;;
67941;SDS011;54731;42.600;23.476;2023-08-01T04:50:19;4.50;;;2.77;;
67941;SDS011;54731;42.600;23.476;2023-08-01T04:52:44;4.05;;;2.60;;
67941;SDS011;54731;42.600;23.476;2023-08-01T04:55:09;4.07;;;3.20;;
67941;SDS011;54731;42.600;23.476;2023-08-01T04:57:35;5.27;;;3.20;;
67941;SDS011;54731;42.600;23.476;2023-08-01T05:00:00;4.60;;;3.30;;
67941;SDS011;54731;42.600;23.476;2023-08-01T05:02:25;6.00;;;3.23;;
67941;SDS011;54731;42.600;23.476;2023-08-01T05:04:51;7.57;;;3.60;;
67941;SDS011;54731;42.600;23.476;2023-08-01T05:07:16;8.63;;;4.55;;
67941;SDS011;54731;42.600;23.476;2023-08-01T05:09:41;7.13;;;3.57;;
67941;SDS011;54731;42.600;23.476;2023-08-01T05:12:07;6.93;;;3.03;;
67941;SDS011;54731;42.600;23.476;2023-08-01T05:14:32;7.03;;;3.30;;
67941;SDS011;54731;42.600;23.476;2023-08-01T05:16:57;5.87;;;2.87;;
67941;SDS011;54731;42.600;23.476;2023-08-01T05:19:23;4.30;;;2.90;;
67941;SDS011;54731;42.600;23.476;2023-08-01T05:21:48;4.23;;;3.27;;
67941;SDS011;54731;42.600;23.476;2023-08-01T05:24:13;6.40;;;3.53;;
67941;SDS011;54731;42.600;23.476;2023-08-01T05:26:39;5.85;;;3.30;;
67941;SDS011;54731;42.600;23.476;2023-08-01T05:29:04;8.03;;;3.17;;
67941;SDS011;54731;42.600;23.476;2023-08-01T05:31:29;6.43;;;3.97;;
67941;SDS011;54731;42.600;23.476;2023-08-01T05:33:55;5.53;;;3.43;;
67941;SDS011;54731;42.600;23.476;2023-08-01T05:38:55;10.95;;;4.28;;
67941;SDS011;54731;42.600;23.476;2023-08-01T05:41:21;5.88;;;3.90;;
67941;SDS011;54731;42.600;23.476;2023-08-01T05:43:47;6.90;;;3.00;;
67941;SDS011;54731;42.600;23.476;2023-08-01T05:46:13;4.18;;;3.00;;
67941;SDS011;54731;42.600;23.476;2023-08-01T05:48:39;5.82;;;2.92;;
67941;SDS011;54731;42.600;23.476;2023-08-01T05:51:04;5.57;;;3.40;;
67941;SDS011;54731;42.600;23.476;2023-08-01T05:53:29;6.63;;;3.53;;
67941;SDS011;54731;42.600;23.476;2023-08-01T05:55:54;5.03;;;3.50;;
67941;SDS011;54731;42.600;23.476;2023-08-01T05:58:20;3.80;;;2.97;;
67941;SDS011;54731;42.600;23.476;2023-08-01T06:00:45;4.70;;;2.87;;
67941;SDS011;54731;42.600;23.476;2023-08-01T06:03:10;3.40;;;2.93;;
67941;SDS011;54731;42.600;23.476;2023-08-01T06:05:36;6.53;;;3.10;;
67941;SDS011;54731;42.600;23.476;2023-08-01T06:08:01;4.22;;;3.10;;
67941;SDS011;54731;42.600;23.476;2023-08-01T06:10:26;3.65;;;2.55;;
67941;SDS011;54731;42.600;23.476;2023-08-01T06:12:52;4.23;;;3.00;;
67941;SDS011;54731;42.600;23.476;2023-08-01T06:15:17;4.13;;;3.10;;
67941;SDS011;54731;42.600;23.476;2023-08-01T06:17:42;6.67;;;3.50;;
67941;SDS011;54731;42.600;23.476;2023-08-01T06:20:08;4.67;;;2.80;;
67941;SDS011;54731;42.600;23.476;2023-08-01T06:22:34;5.88;;;3.47;;
67941;SDS011;54731;42.600;23.476;2023-08-01T06:24:59;8.40;;;4.07;;
67941;SDS011;54731;42.600;23.476;2023-08-01T06:27:24;8.90;;;3.73;;
67941;SDS011;54731;42.600;23.476;2023-08-01T06:29:50;6.80;;;3.17;;
67941;SDS011;54731;42.600;23.476;2023-08-01T06:32:15;5.33;;;3.10;;
67941;SDS011;54731;42.600;23.476;2023-08-01T06:34:40;6.17;;;2.90;;
67941;SDS011;54731;42.600;23.476;2023-08-01T06:37:06;6.27;;;3.40;;
67941;SDS011;54731;42.600;23.476;2023-08-01T06:39:31;6.38;;;3.15;;
67941;SDS011;54731;42.600;23.476;2023-08-01T06:41:56;4.50;;;3.27;;
67941;SDS011;54731;42.600;23.476;2023-08-01T06:44:22;4.57;;;3.30;;
67941;SDS011;54731;42.600;23.476;2023-08-01T06:46:47;5.90;;;4.00;;
67941;SDS011;54731;42.600;23.476;2023-08-01T06:49:12;6.97;;;4.07;;
67941;SDS011;54731;42.600;23.476;2023-08-01T06:51:37;8.77;;;4.00;;
67941;SDS011;54731;42.600;23.476;2023-08-01T06:54:03;5.67;;;3.27;;
67941;SDS011;54731;42.600;23.476;2023-08-01T06:56:28;5.47;;;4.50;;
67941;SDS011;54731;42.600;23.476;2023-08-01T06:58:53;6.37;;;4.53;;
67941;SDS011;54731;42.600;23.476;2023-08-01T07:01:18;5.43;;;4.03;;
67941;SDS011;54731;42.600;23.476;2023-08-01T07:03:44;5.47;;;4.60;;
67941;SDS011;54731;42.600;23.476;2023-08-01T07:06:09;6.47;;;4.53;;
67941;SDS011;54731;42.600;23.476;2023-08-01T07:08:34;7.57;;;4.07;;
67941;SDS011;54731;42.600;23.476;2023-08-01T07:11:00;7.23;;;4.40;;
67941;SDS011;54731;42.600;23.476;2023-08-01T07:13:25;7.37;;;4.33;;
67941;SDS011;54731;42.600;23.476;2023-08-01T07:15:50;6.13;;;4.20;;
67941;SDS011;54731;42.600;23.476;2023-08-01T07:18:16;7.13;;;4.63;;
67941;SDS011;54731;42.600;23.476;2023-08-01T07:20:41;8.45;;;4.35;;
67941;SDS011;54731;42.600;23.476;2023-08-01T07:23:07;6.50;;;4.83;;
67941;SDS011;54731;42.600;23.476;2023-08-01T07:25:32;5.50;;;3.80;;
67941;SDS011;54731;42.600;23.476;2023-08-01T07:27:57;7.03;;;4.23;;
67941;SDS011;54731;42.600;23.476;2023-08-01T07:30:22;9.63;;;4.30;;
67941;SDS011;54731;42.600;23.476;2023-08-01T07:32:48;15.47;;;4.17;;
67941;SDS011;54731;42.600;23.476;2023-08-01T07:35:13;6.93;;;4.20;;
67941;SDS011;54731;42.600;23.476;2023-08-01T07:37:39;6.70;;;4.63;;
67941;SDS011;54731;42.600;23.476;2023-08-01T07:40:07;5.93;;;3.50;;
67941;SDS011;54731;42.600;23.476;2023-08-01T07:42:33;7.25;;;3.80;;
67941;SDS011;54731;42.600;23.476;2023-08-01T07:44:58;7.00;;;3.87;;
67941;SDS011;54731;42.600;23.476;2023-08-01T07:47:24;9.47;;;4.70;;
67941;SDS011;54731;42.600;23.476;2023-08-01T07:49:49;5.37;;;4.23;;
67941;SDS011;54731;42.600;23.476;2023-08-01T07:52:15;9.40;;;4.75;;
67941;SDS011;54731;42.600;23.476;2023-08-01T07:54:40;5.50;;;3.80;;
67941;SDS011;54731;42.600;23.476;2023-08-01T07:57:06;5.67;;;3.50;;
67941;SDS011;54731;42.600;23.476;2023-08-01T07:59:31;7.30;;;4.00;;
67941;SDS011;54731;42.600;23.476;2023-08-01T08:01:56;5.43;;;3.70;;
67941;SDS011;54731;42.600;23.476;2023-08-01T08:04:22;5.03;;;3.27;;
67941;SDS011;54731;42.600;23.476;2023-08-01T08:06:47;7.27;;;3.33;;
67941;SDS011;54731;42.600;23.476;2023-08-01T08:09:12;4.97;;;3.78;;
67941;SDS011;54731;42.600;23.476;2023-08-01T08:11:38;8.47;;;3.23;;
67941;SDS011;54731;42.600;23.476;2023-08-01T08:14:03;4.83;;;3.20;;
67941;SDS011;54731;42.600;23.476;2023-08-01T08:16:29;3.97;;;3.13;;
67941;SDS011;54731;42.600;23.476;2023-08-01T08:18:54;6.85;;;3.13;;
67941;SDS011;54731;42.600;23.476;2023-08-01T08:21:20;4.27;;;2.97;;
67941;SDS011;54731;42.600;23.476;2023-08-01T08:23:45;8.63;;;2.90;;
67941;SDS011;54731;42.600;23.476;2023-08-01T08:26:10;4.60;;;2.90;;
67941;SDS011;54731;42.600;23.476;2023-08-01T08:28:36;4.23;;;2.83;;
67941;SDS011;54731;42.600;23.476;2023-08-01T08:31:01;4.47;;;3.23;;
67941;SDS011;54731;42.600;23.476;2023-08-01T08:33:28;4.88;;;3.20;;
67941;SDS011;54731;42.600;23.476;2023-08-01T08:35:54;8.15;;;3.45;;
67941;SDS011;54731;42.600;23.476;2023-08-01T08:38:19;6.73;;;3.30;;
67941;SDS011;54731;42.600;23.476;2023-08-01T08:40:53;5.03;;;3.07;;
67941;SDS011;54731;42.600;23.476;2023-08-01T08:43:20;5.53;;;3.35;;
67941;SDS011;54731;42.600;23.476;2023-08-01T08:45:46;6.43;;;3.60;;
67941;SDS011;54731;42.600;23.476;2023-08-01T08:48:15;4.37;;;3.13;;
67941;SDS011;54731;42.600;23.476;2023-08-01T08:50:43;7.45;;;3.17;;
67941;SDS011;54731;42.600;23.476;2023-08-01T08:53:10;6.53;;;3.58;;
67941;SDS011;54731;42.600;23.476;2023-08-01T08:55:36;6.30;;;2.77;;
67941;SDS011;54731;42.600;23.476;2023-08-01T08:58:02;5.30;;;3.42;;
67941;SDS011;54731;42.600;23.476;2023-08-01T09:00:28;6.95;;;3.63;;
67941;SDS011;54731;42.600;23.476;2023-08-01T09:02:54;4.68;;;3.22;;
67941;SDS011;54731;42.600;23.476;2023-08-01T09:05:19;4.03;;;3.10;;
67941;SDS011;54731;42.600;23.476;2023-08-01T09:07:48;6.32;;;2.88;;
67941;SDS011;54731;42.600;23.476;2023-08-01T09:10:16;6.00;;;3.00;;
67941;SDS011;54731;42.600;23.476;2023-08-01T09:12:41;5.90;;;3.50;;
67941;SDS011;54731;42.600;23.476;2023-08-01T09:15:07;5.47;;;2.63;;
67941;SDS011;54731;42.600;23.476;2023-08-01T09:17:33;5.05;;;3.08;;
67941;SDS011;54731;42.600;23.476;2023-08-01T09:20:05;4.33;;;3.07;;
67941;SDS011;54731;42.600;23.476;2023-08-01T09:22:40;8.20;;;3.30;;
67941;SDS011;54731;42.600;23.476;2023-08-01T09:25:07;4.25;;;3.30;;
67941;SDS011;54731;42.600;23.476;2023-08-01T09:27:33;8.90;;;4.80;;
67941;SDS011;54731;42.600;23.476;2023-08-01T09:30:08;12.40;;;5.00;;
67941;SDS011;54731;42.600;23.476;2023-08-01T09:32:38;6.13;;;3.58;;
67941;SDS011;54731;42.600;23.476;2023-08-01T09:35:04;8.82;;;3.63;;
67941;SDS011;54731;42.600;23.476;2023-08-01T09:37:37;3.25;;;2.95;;
67941;SDS011;54731;42.600;23.476;2023-08-01T09:40:07;3.67;;;3.22;;
67941;SDS011;54731;42.600;23.476;2023-08-01T09:42:37;9.77;;;5.45;;
67941;SDS011;54731;42.600;23.476;2023-08-01T09:45:16;3.97;;;3.13;;
67941;SDS011;54731;42.600;23.476;2023-08-01T09:47:43;4.80;;;3.40;;
67941;SDS011;54731;42.600;23.476;2023-08-01T09:50:09;5.57;;;3.30;;
67941;SDS011;54731;42.600;23.476;2023-08-01T09:52:35;4.35;;;3.50;;
67941;SDS011;54731;42.600;23.476;2023-08-01T09:55:01;6.13;;;3.70;;
67941;SDS011;54731;42.600;23.476;2023-08-01T09:57:28;4.07;;;3.03;;
67941;SDS011;54731;42.600;23.476;2023-08-01T09:59:58;7.93;;;4.25;;
67941;SDS011;54731;42.600;23.476;2023-08-01T10:02:24;6.27;;;2.60;;
67941;SDS011;54731;42.600;23.476;2023-08-01T10:04:52;6.45;;;3.05;;
67941;SDS011;54731;42.600;23.476;2023-08-01T10:07:17;4.78;;;3.20;;
67941;SDS011;54731;42.600;23.476;2023-08-01T10:09:57;3.33;;;2.55;;
67941;SDS011;54731;42.600;23.476;2023-08-01T10:12:24;6.95;;;3.13;;
67941;SDS011;54731;42.600;23.476;2023-08-01T10:14:51;3.37;;;2.40;;
67941;SDS011;54731;42.600;23.476;2023-08-01T10:17:17;3.88;;;2.65;;
67941;SDS011;54731;42.600;23.476;2023-08-01T10:19:44;5.20;;;2.78;;
67941;SDS011;54731;42.600;23.476;2023-08-01T10:22:10;5.82;;;3.65;;
67941;SDS011;54731;42.600;23.476;2023-08-01T10:24:36;5.35;;;3.20;;
67941;SDS011;54731;42.600;23.476;2023-08-01T10:27:13;5.27;;;3.30;;
67941;SDS011;54731;42.600;23.476;2023-08-01T10:29:39;4.25;;;3.28;;
67941;SDS011;54731;42.600;23.476;2023-08-01T10:32:06;3.80;;;3.07;;
67941;SDS011;54731;42.600;23.476;2023-08-01T10:34:32;4.47;;;3.10;;
67941;SDS011;54731;42.600;23.476;2023-08-01T10:36:57;5.77;;;3.20;;
67941;SDS011;54731;42.600;23.476;2023-08-01T10:39:24;4.75;;;2.92;;
67941;SDS011;54731;42.600;23.476;2023-08-01T10:41:57;5.15;;;2.90;;
67941;SDS011;54731;42.600;23.476;2023-08-01T10:44:22;3.53;;;2.80;;
67941;SDS011;54731;42.600;23.476;2023-08-01T10:46:54;5.60;;;2.90;;
67941;SDS011;54731;42.600;23.476;2023-08-01T10:49:32;3.83;;;3.00;;
67941;SDS011;54731;42.600;23.476;2023-08-01T10:52:18;5.27;;;3.27;;
67941;SDS011;54731;42.600;23.476;2023-08-01T10:54:43;5.13;;;3.03;;
67941;SDS011;54731;42.600;23.476;2023-08-01T10:57:14;6.13;;;3.05;;
67941;SDS011;54731;42.600;23.476;2023-08-01T10:59:41;6.95;;;3.03;;
67941;SDS011;54731;42.600;23.476;2023-08-01T11:02:07;3.70;;;3.35;;
67941;SDS011;54731;42.600;23.476;2023-08-01T11:04:32;3.80;;;3.00;;
67941;SDS011;54731;42.600;23.476;2023-08-01T11:06:58;5.60;;;3.10;;
67941;SDS011;54731;42.600;23.476;2023-08-01T11:09:24;5.93;;;2.67;;
67941;SDS011;54731;42.600;23.476;2023-08-01T11:11:54;4.75;;;3.17;;
67941;SDS011;54731;42.600;23.476;2023-08-01T11:14:22;3.03;;;2.73;;
67941;SDS011;54731;42.600;23.476;2023-08-01T11:16:48;5.43;;;3.13;;
67941;SDS011;54731;42.600;23.476;2023-08-01T11:19:22;5.10;;;2.90;;
67941;SDS011;54731;42.600;23.476;2023-08-01T11:21:51;3.13;;;2.58;;
67941;SDS011;54731;42.600;23.476;2023-08-01T11:24:18;5.55;;;3.40;;
67941;SDS011;54731;42.600;23.476;2023-08-01T11:26:46;8.03;;;3.60;;
67941;SDS011;54731;42.600;23.476;2023-08-01T11:29:12;5.32;;;3.75;;
67941;SDS011;54731;42.600;23.476;2023-08-01T11:31:39;6.72;;;3.60;;
67941;SDS011;54731;42.600;23.476;2023-08-01T11:34:05;5.65;;;3.30;;
67941;SDS011;54731;42.600;23.476;2023-08-01T11:36:30;6.20;;;3.20;;
67941;SDS011;54731;42.600;23.476;2023-08-01T11:38:57;3.47;;;3.03;;
67941;SDS011;54731;42.600;23.476;2023-08-01T11:41:24;3.83;;;2.90;;
67941;SDS011;54731;42.600;23.476;2023-08-01T11:43:50;3.70;;;3.40;;
67941;SDS011;54731;42.600;23.476;2023-08-01T11:46:16;4.43;;;3.30;;
67941;SDS011;54731;42.600;23.476;2023-08-01T11:48:44;8.20;;;3.30;;
67941;SDS011;54731;42.600;23.476;2023-08-01T11:51:10;6.80;;;3.38;;
67941;SDS011;54731;42.600;23.476;2023-08-01T11:53:36;4.13;;;3.40;;
67941;SDS011;54731;42.600;23.476;2023-08-01T11:56:01;4.87;;;3.60;;
67941;SDS011;54731;42.600;23.476;2023-08-01T11:58:30;7.60;;;4.03;;
67941;SDS011;54731;42.600;23.476;2023-08-01T12:03:31;5.15;;;3.90;;
67941;SDS011;54731;42.600;23.476;2023-08-01T12:06:17;4.43;;;3.95;;
67941;SDS011;54731;42.600;23.476;2023-08-01T12:08:45;4.22;;;3.83;;
67941;SDS011;54731;42.600;23.476;2023-08-01T12:11:24;5.73;;;3.70;;
67941;SDS011;54731;42.600;23.476;2023-08-01T12:14:13;4.55;;;3.58;;
67941;SDS011;54731;42.600;23.476;2023-08-01T12:16:45;4.78;;;3.70;;
67941;SDS011;54731;42.600;23.476;2023-08-01T12:19:16;7.68;;;3.90;;
67941;SDS011;54731;42.600;23.476;2023-08-01T12:21:43;5.85;;;4.38;;
67941;SDS011;54731;42.600;23.476;2023-08-01T12:24:09;4.30;;;3.90;;
67941;SDS011;54731;42.600;23.476;2023-08-01T12:26:34;10.48;;;3.92;;
67941;SDS011;54731;42.600;23.476;2023-08-01T12:28:59;4.10;;;3.40;;
67941;SDS011;54731;42.600;23.476;2023-08-01T12:31:25;6.13;;;3.90;;
67941;SDS011;54731;42.600;23.476;2023-08-01T12:33:50;5.93;;;3.90;;
67941;SDS011;54731;42.600;23.476;2023-08-01T12:36:16;5.53;;;3.73;;
67941;SDS011;54731;42.600;23.476;2023-08-01T12:38:41;4.63;;;3.87;;
67941;SDS011;54731;42.600;23.476;2023-08-01T12:41:07;8.18;;;3.83;;
67941;SDS011;54731;42.600;23.476;2023-08-01T12:43:33;4.90;;;4.05;;
67941;SDS011;54731;42.600;23.476;2023-08-01T12:45:58;5.03;;;3.67;;
67941;SDS011;54731;42.600;23.476;2023-08-01T12:48:27;7.53;;;3.95;;
67941;SDS011;54731;42.600;23.476;2023-08-01T12:50:53;5.00;;;4.37;;
67941;SDS011;54731;42.600;23.476;2023-08-01T12:53:18;8.57;;;3.97;;
67941;SDS011;54731;42.600;23.476;2023-08-01T12:55:44;4.63;;;3.50;;
67941;SDS011;54731;42.600;23.476;2023-08-01T12:58:11;5.72;;;3.92;;
67941;SDS011;54731;42.600;23.476;2023-08-01T13:00:36;5.38;;;3.60;;
67941;SDS011;54731;42.600;23.476;2023-08-01T13:03:02;13.60;;;3.60;;
67941;SDS011;54731;42.600;23.476;2023-08-01T13:05:28;5.30;;;3.60;;
67941;SDS011;54731;42.600;23.476;2023-08-01T13:07:53;4.30;;;3.60;;
67941;SDS011;54731;42.600;23.476;2023-08-01T13:10:18;7.60;;;4.10;;
67941;SDS011;54731;42.600;23.476;2023-08-01T13:12:44;5.30;;;3.70;;
67941;SDS011;54731;42.600;23.476;2023-08-01T13:15:09;6.53;;;4.53;;
67941;SDS011;54731;42.600;23.476;2023-08-01T13:17:34;5.23;;;3.23;;
67941;SDS011;54731;42.600;23.476;2023-08-01T13:20:00;6.93;;;4.33;;
67941;SDS011;54731;42.600;23.476;2023-08-01T13:22:25;6.27;;;4.30;;
67941;SDS011;54731;42.600;23.476;2023-08-01T13:24:50;5.83;;;4.07;;
67941;SDS011;54731;42.600;23.476;2023-08-01T13:27:15;7.83;;;4.30;;
67941;SDS011;54731;42.600;23.476;2023-08-01T13:29:41;6.73;;;3.90;;
67941;SDS011;54731;42.600;23.476;2023-08-01T13:32:06;5.67;;;4.30;;
67941;SDS011;54731;42.600;23.476;2023-08-01T13:34:32;6.85;;;3.35;;
67941;SDS011;54731;42.600;23.476;2023-08-01T13:36:57;6.10;;;4.03;;
67941;SDS011;54731;42.600;23.476;2023-08-01T13:39:23;6.30;;;3.30;;
67941;SDS011;54731;42.600;23.476;2023-08-01T13:41:48;13.20;;;4.23;;
67941;SDS011;54731;42.600;23.476;2023-08-01T13:44:13;5.43;;;3.90;;
67941;SDS011;54731;42.600;23.476;2023-08-01T13:46:38;6.60;;;4.30;;
67941;SDS011;54731;42.600;23.476;2023-08-01T13:49:04;8.63;;;4.20;;
67941;SDS011;54731;42.600;23.476;2023-08-01T13:51:31;15.30;;;4.60;;
67941;SDS011;54731;42.600;23.476;2023-08-01T13:53:59;6.23;;;4.10;;
67941;SDS011;54731;42.600;23.476;2023-08-01T13:56:25;8.63;;;3.92;;
67941;SDS011;54731;42.600;23.476;2023-08-01T13:58:51;6.23;;;4.17;;
67941;SDS011;54731;42.600;23.476;2023-08-01T14:01:16;6.97;;;4.32;;
67941;SDS011;54731;42.600;23.476;2023-08-01T14:03:42;7.43;;;3.53;;
67941;SDS011;54731;42.600;23.476;2023-08-01T14:06:08;4.23;;;3.70;;
67941;SDS011;54731;42.600;23.476;2023-08-01T14:08:34;6.07;;;3.97;;
67941;SDS011;54731;42.600;23.476;2023-08-01T14:11:03;5.37;;;4.03;;
67941;SDS011;54731;42.600;23.476;2023-08-01T14:13:29;6.78;;;3.78;;
67941;SDS011;54731;42.600;23.476;2023-08-01T14:15:54;4.10;;;3.70;;
67941;SDS011;54731;42.600;23.476;2023-08-01T14:18:20;5.85;;;4.05;;
67941;SDS011;54731;42.600;23.476;2023-08-01T14:20:45;4.75;;;3.60;;
67941;SDS011;54731;42.600;23.476;2023-08-01T14:23:11;5.53;;;4.00;;
67941;SDS011;54731;42.600;23.476;2023-08-01T14:25:36;6.87;;;4.20;;
67941;SDS011;54731;42.600;23.476;2023-08-01T14:28:01;6.10;;;3.80;;
67941;SDS011;54731;42.600;23.476;2023-08-01T14:30:27;5.13;;;3.90;;
67941;SDS011;54731;42.600;23.476;2023-08-01T14:33:02;4.07;;;3.67;;